sensor_id;sensor_type;location;lat;lon;timestamp;P1;durP1;ratioP1;P2;durP2;ratioP2
22040;SDS011;11184;52.444;13.578;2024-03-06T00:00:25;48.42;;;32.38;;
22040;SDS011;11184;52.444;13.578;2024-03-06T00:03:09;69.25;;;35.22;;
22040;SDS011;11184;52.444;13.578;2024-03-06T00:05:54;42.75;;;31.00;;
22040;SDS011;11184;52.444;13.578;2024-03-06T00:08:38;42.03;;;31.95;;
22040;SDS011;11184;52.444;13.578;2024-03-06T00:11:23;55.58;;;33.28;;
22040;SDS011;11184;52.444;13.578;2024-03-06T00:14:08;45.45;;;31.30;;
22040;SDS011;11184;52.444;13.578;2024-03-06T00:16:52;48.88;;;33.67;;
22040;SDS011;11184;52.444;13.578;2024-03-06T00:19:39;41.35;;;31.77;;
22040;SDS011;11184;52.444;13.578;2024-03-06T00:22:24;49.72;;;30.92;;
22040;SDS011;11184;52.444;13.578;2024-03-06T00:25:08;41.67;;;30.90;;
22040;SDS011;11184;52.444;13.578;2024-03-06T00:27:53;48.10;;;33.13;;
22040;SDS011;11184;52.444;13.578;2024-03-06T00:30:37;48.80;;;30.90;;
22040;SDS011;11184;52.444;13.578;2024-03-06T00:33:22;54.85;;;33.08;;
22040;SDS011;11184;52.444;13.578;2024-03-06T00:36:07;44.17;;;30.00;;
22040;SDS011;11184;52.444;13.578;2024-03-06T00:38:52;44.35;;;32.75;;
22040;SDS011;11184;52.444;13.578;2024-03-06T00:41:37;43.15;;;30.80;;
22040;SDS011;11184;52.444;13.578;2024-03-06T00:44:21;39.20;;;28.98;;
22040;SDS011;11184;52.444;13.578;2024-03-06T00:47:06;43.85;;;30.58;;
22040;SDS011;11184;52.444;13.578;2024-03-06T00:49:50;42.55;;;29.17;;
22040;SDS011;11184;52.444;13.578;2024-03-06T00:52:35;45.55;;;32.00;;
22040;SDS011;11184;52.444;13.578;2024-03-06T00:55:19;39.92;;;27.08;;
22040;SDS011;11184;52.444;13.578;2024-03-06T00:58:05;41.60;;;30.15;;
22040;SDS011;11184;52.444;13.578;2024-03-06T01:00:51;46.50;;;30.27;;
22040;SDS011;11184;52.444;13.578;2024-03-06T01:03:37;47.88;;;33.47;;
22040;SDS011;11184;52.444;13.578;2024-03-06T01:06:21;42.72;;;30.02;;
22040;SDS011;11184;52.444;13.578;2024-03-06T01:09:06;45.78;;;32.03;;
22040;SDS011;11184;52.444;13.578;2024-03-06T01:11:50;48.47;;;31.88;;
22040;SDS011;11184;52.444;13.578;2024-03-06T01:14:35;39.33;;;31.02;;
22040;SDS011;11184;52.444;13.578;2024-03-06T01:17:19;41.70;;;32.22;;
22040;SDS011;11184;52.444;13.578;2024-03-06T01:20:04;45.00;;;32.28;;
22040;SDS011;11184;52.444;13.578;2024-03-06T01:22:52;46.53;;;32.35;;
22040;SDS011;11184;52.444;13.578;2024-03-06T01:25:37;50.83;;;34.50;;
22040;SDS011;11184;52.444;13.578;2024-03-06T01:28:21;41.78;;;32.78;;
22040;SDS011;11184;52.444;13.578;2024-03-06T01:31:06;52.00;;;31.80;;
22040;SDS011;11184;52.444;13.578;2024-03-06T01:33:51;49.88;;;31.67;;
22040;SDS011;11184;52.444;13.578;2024-03-06T01:36:35;51.05;;;34.85;;
22040;SDS011;11184;52.444;13.578;2024-03-06T01:39:20;53.17;;;33.38;;
22040;SDS011;11184;52.444;13.578;2024-03-06T01:42:04;54.45;;;34.60;;
22040;SDS011;11184;52.444;13.578;2024-03-06T01:44:49;45.63;;;32.75;;
22040;SDS011;11184;52.444;13.578;2024-03-06T01:47:34;46.30;;;32.72;;
22040;SDS011;11184;52.444;13.578;2024-03-06T01:50:19;43.97;;;31.98;;
22040;SDS011;11184;52.444;13.578;2024-03-06T01:53:04;49.88;;;32.78;;
22040;SDS011;11184;52.444;13.578;2024-03-06T01:55:48;43.25;;;32.33;;
22040;SDS011;11184;52.444;13.578;2024-03-06T01:58:33;52.30;;;33.63;;
22040;SDS011;11184;52.444;13.578;2024-03-06T02:01:17;49.15;;;33.58;;
22040;SDS011;11184;52.444;13.578;2024-03-06T02:04:03;49.85;;;33.70;;
22040;SDS011;11184;52.444;13.578;2024-03-06T02:06:48;53.60;;;33.75;;
22040;SDS011;11184;52.444;13.578;2024-03-06T02:09:33;47.80;;;32.08;;
22040;SDS011;11184;52.444;13.578;2024-03-06T02:12:17;49.55;;;32.05;;
22040;SDS011;11184;52.444;13.578;2024-03-06T02:15:02;48.75;;;31.33;;
22040;SDS011;11184;52.444;13.578;2024-03-06T02:17:46;57.67;;;33.08;;
22040;SDS011;11184;52.444;13.578;2024-03-06T02:20:31;56.78;;;33.38;;
22040;SDS011;11184;52.444;13.578;2024-03-06T02:23:16;51.05;;;34.95;;
22040;SDS011;11184;52.444;13.578;2024-03-06T02:26:01;50.75;;;34.58;;
22040;SDS011;11184;52.444;13.578;2024-03-06T02:28:53;47.35;;;34.17;;
22040;SDS011;11184;52.444;13.578;2024-03-06T02:31:38;56.28;;;32.08;;
22040;SDS011;11184;52.444;13.578;2024-03-06T02:34:23;52.15;;;34.15;;
22040;SDS011;11184;52.444;13.578;2024-03-06T02:37:08;45.35;;;32.03;;
22040;SDS011;11184;52.444;13.578;2024-03-06T02:39:53;48.58;;;31.90;;
22040;SDS011;11184;52.444;13.578;2024-03-06T02:42:37;49.03;;;33.60;;
22040;SDS011;11184;52.444;13.578;2024-03-06T02:45:22;43.92;;;32.55;;
22040;SDS011;11184;52.444;13.578;2024-03-06T02:48:07;51.90;;;36.30;;
22040;SDS011;11184;52.444;13.578;2024-03-06T02:50:51;47.25;;;33.80;;
22040;SDS011;11184;52.444;13.578;2024-03-06T02:53:36;44.95;;;30.45;;
22040;SDS011;11184;52.444;13.578;2024-03-06T02:56:21;50.53;;;32.97;;
22040;SDS011;11184;52.444;13.578;2024-03-06T02:59:05;45.85;;;32.92;;
22040;SDS011;11184;52.444;13.578;2024-03-06T03:01:50;48.88;;;32.47;;
22040;SDS011;11184;52.444;13.578;2024-03-06T03:04:34;47.10;;;32.40;;
22040;SDS011;11184;52.444;13.578;2024-03-06T03:07:19;51.47;;;36.85;;
22040;SDS011;11184;52.444;13.578;2024-03-06T03:10:04;50.60;;;35.75;;
22040;SDS011;11184;52.444;13.578;2024-03-06T03:12:49;48.58;;;33.00;;
22040;SDS011;11184;52.444;13.578;2024-03-06T03:15:34;45.75;;;30.50;;
22040;SDS011;11184;52.444;13.578;2024-03-06T03:18:19;45.30;;;33.10;;
22040;SDS011;11184;52.444;13.578;2024-03-06T03:21:03;46.55;;;33.92;;
22040;SDS011;11184;52.444;13.578;2024-03-06T03:23:52;52.38;;;32.78;;
22040;SDS011;11184;52.444;13.578;2024-03-06T03:26:37;53.10;;;33.20;;
22040;SDS011;11184;52.444;13.578;2024-03-06T03:29:22;50.25;;;33.20;;
22040;SDS011;11184;52.444;13.578;2024-03-06T03:32:06;49.65;;;33.30;;
22040;SDS011;11184;52.444;13.578;2024-03-06T03:34:51;55.60;;;33.45;;
22040;SDS011;11184;52.444;13.578;2024-03-06T03:37:36;48.92;;;33.53;;
22040;SDS011;11184;52.444;13.578;2024-03-06T03:40:21;53.75;;;33.65;;
22040;SDS011;11184;52.444;13.578;2024-03-06T03:43:06;50.35;;;33.45;;
22040;SDS011;11184;52.444;13.578;2024-03-06T03:45:51;45.35;;;30.60;;
22040;SDS011;11184;52.444;13.578;2024-03-06T03:48:35;51.05;;;33.78;;
22040;SDS011;11184;52.444;13.578;2024-03-06T03:51:20;51.05;;;34.78;;
22040;SDS011;11184;52.444;13.578;2024-03-06T03:54:05;43.70;;;32.92;;
22040;SDS011;11184;52.444;13.578;2024-03-06T03:56:49;57.83;;;35.42;;
22040;SDS011;11184;52.444;13.578;2024-03-06T03:59:34;45.88;;;31.35;;
22040;SDS011;11184;52.444;13.578;2024-03-06T04:02:20;47.28;;;32.58;;
22040;SDS011;11184;52.444;13.578;2024-03-06T04:05:05;44.95;;;31.33;;
22040;SDS011;11184;52.444;13.578;2024-03-06T04:07:50;53.35;;;34.83;;
22040;SDS011;11184;52.444;13.578;2024-03-06T04:10:35;52.92;;;35.13;;
22040;SDS011;11184;52.444;13.578;2024-03-06T04:13:19;51.60;;;34.33;;
22040;SDS011;11184;52.444;13.578;2024-03-06T04:16:04;56.47;;;35.03;;
22040;SDS011;11184;52.444;13.578;2024-03-06T04:18:49;49.13;;;33.65;;
22040;SDS011;11184;52.444;13.578;2024-03-06T04:21:34;51.70;;;34.75;;
22040;SDS011;11184;52.444;13.578;2024-03-06T04:24:18;53.45;;;35.67;;
22040;SDS011;11184;52.444;13.578;2024-03-06T04:27:03;57.30;;;36.05;;
22040;SDS011;11184;52.444;13.578;2024-03-06T04:29:47;58.47;;;34.95;;
22040;SDS011;11184;52.444;13.578;2024-03-06T04:32:32;55.22;;;36.33;;
22040;SDS011;11184;52.444;13.578;2024-03-06T04:35:16;58.25;;;34.08;;
22040;SDS011;11184;52.444;13.578;2024-03-06T04:38:01;55.05;;;33.67;;
22040;SDS011;11184;52.444;13.578;2024-03-06T04:40:47;55.60;;;35.25;;
22040;SDS011;11184;52.444;13.578;2024-03-06T04:43:32;53.38;;;36.70;;
22040;SDS011;11184;52.444;13.578;2024-03-06T04:46:16;58.42;;;34.42;;
22040;SDS011;11184;52.444;13.578;2024-03-06T04:49:01;58.65;;;36.83;;
22040;SDS011;11184;52.444;13.578;2024-03-06T04:51:45;57.08;;;36.55;;
22040;SDS011;11184;52.444;13.578;2024-03-06T04:54:30;49.05;;;36.08;;
22040;SDS011;11184;52.444;13.578;2024-03-06T04:57:15;62.03;;;37.42;;
22040;SDS011;11184;52.444;13.578;2024-03-06T05:00:00;59.47;;;38.20;;
22040;SDS011;11184;52.444;13.578;2024-03-06T05:02:49;59.13;;;38.63;;
22040;SDS011;11184;52.444;13.578;2024-03-06T05:05:33;55.88;;;36.58;;
22040;SDS011;11184;52.444;13.578;2024-03-06T05:08:18;52.67;;;35.47;;
22040;SDS011;11184;52.444;13.578;2024-03-06T05:11:04;57.58;;;38.55;;
22040;SDS011;11184;52.444;13.578;2024-03-06T05:13:48;55.30;;;35.63;;
22040;SDS011;11184;52.444;13.578;2024-03-06T05:16:33;56.38;;;36.00;;
22040;SDS011;11184;52.444;13.578;2024-03-06T05:19:18;58.67;;;37.95;;
22040;SDS011;11184;52.444;13.578;2024-03-06T05:22:03;65.95;;;39.10;;
22040;SDS011;11184;52.444;13.578;2024-03-06T05:24:49;63.35;;;38.08;;
22040;SDS011;11184;52.444;13.578;2024-03-06T05:27:34;57.78;;;36.00;;
22040;SDS011;11184;52.444;13.578;2024-03-06T05:30:18;72.15;;;36.58;;
22040;SDS011;11184;52.444;13.578;2024-03-06T05:33:03;62.95;;;41.13;;
22040;SDS011;11184;52.444;13.578;2024-03-06T05:35:47;60.38;;;38.78;;
22040;SDS011;11184;52.444;13.578;2024-03-06T05:38:32;63.72;;;38.40;;
22040;SDS011;11184;52.444;13.578;2024-03-06T05:41:16;60.30;;;39.90;;
22040;SDS011;11184;52.444;13.578;2024-03-06T05:44:02;57.75;;;38.47;;
22040;SDS011;11184;52.444;13.578;2024-03-06T05:46:48;61.47;;;37.30;;
22040;SDS011;11184;52.444;13.578;2024-03-06T05:49:32;57.05;;;37.40;;
22040;SDS011;11184;52.444;13.578;2024-03-06T05:52:17;63.05;;;38.22;;
22040;SDS011;11184;52.444;13.578;2024-03-06T05:55:02;66.47;;;36.65;;
22040;SDS011;11184;52.444;13.578;2024-03-06T05:57:49;60.28;;;37.97;;
22040;SDS011;11184;52.444;13.578;2024-03-06T06:00:34;68.70;;;38.75;;
22040;SDS011;11184;52.444;13.578;2024-03-06T06:03:19;61.88;;;38.65;;
22040;SDS011;11184;52.444;13.578;2024-03-06T06:06:03;67.38;;;40.28;;
22040;SDS011;11184;52.444;13.578;2024-03-06T06:08:48;62.67;;;40.33;;
22040;SDS011;11184;52.444;13.578;2024-03-06T06:11:32;70.13;;;41.25;;
22040;SDS011;11184;52.444;13.578;2024-03-06T06:14:17;68.97;;;40.67;;
22040;SDS011;11184;52.444;13.578;2024-03-06T06:17:02;69.53;;;41.00;;
22040;SDS011;11184;52.444;13.578;2024-03-06T06:19:47;80.13;;;42.03;;
22040;SDS011;11184;52.444;13.578;2024-03-06T06:22:31;72.60;;;42.63;;
22040;SDS011;11184;52.444;13.578;2024-03-06T06:25:18;71.25;;;43.20;;
22040;SDS011;11184;52.444;13.578;2024-03-06T06:28:02;76.70;;;40.42;;
22040;SDS011;11184;52.444;13.578;2024-03-06T06:30:47;75.10;;;41.08;;
22040;SDS011;11184;52.444;13.578;2024-03-06T06:33:32;68.60;;;39.30;;
22040;SDS011;11184;52.444;13.578;2024-03-06T06:36:17;69.63;;;39.50;;
22040;SDS011;11184;52.444;13.578;2024-03-06T06:39:01;71.93;;;41.72;;
22040;SDS011;11184;52.444;13.578;2024-03-06T06:41:49;72.10;;;47.35;;
22040;SDS011;11184;52.444;13.578;2024-03-06T06:44:34;64.95;;;39.95;;
22040;SDS011;11184;52.444;13.578;2024-03-06T06:47:19;74.20;;;40.35;;
22040;SDS011;11184;52.444;13.578;2024-03-06T06:50:03;67.80;;;40.28;;
22040;SDS011;11184;52.444;13.578;2024-03-06T06:52:49;70.53;;;39.85;;
22040;SDS011;11184;52.444;13.578;2024-03-06T06:55:33;83.95;;;42.08;;
22040;SDS011;11184;52.444;13.578;2024-03-06T06:58:20;72.45;;;40.45;;
22040;SDS011;11184;52.444;13.578;2024-03-06T07:01:04;70.78;;;39.72;;
22040;SDS011;11184;52.444;13.578;2024-03-06T07:03:49;64.93;;;37.45;;
22040;SDS011;11184;52.444;13.578;2024-03-06T07:06:33;63.80;;;39.53;;
22040;SDS011;11184;52.444;13.578;2024-03-06T07:09:21;84.35;;;48.75;;
22040;SDS011;11184;52.444;13.578;2024-03-06T07:12:06;71.25;;;43.75;;
22040;SDS011;11184;52.444;13.578;2024-03-06T07:14:51;73.43;;;44.63;;
22040;SDS011;11184;52.444;13.578;2024-03-06T07:17:36;70.32;;;41.88;;
22040;SDS011;11184;52.444;13.578;2024-03-06T07:20:20;83.25;;;44.45;;
22040;SDS011;11184;52.444;13.578;2024-03-06T07:23:05;94.70;;;38.50;;
22040;SDS011;11184;52.444;13.578;2024-03-06T07:25:50;55.70;;;37.33;;
22040;SDS011;11184;52.444;13.578;2024-03-06T07:28:34;60.67;;;38.65;;
22040;SDS011;11184;52.444;13.578;2024-03-06T07:31:21;76.20;;;37.92;;
22040;SDS011;11184;52.444;13.578;2024-03-06T07:34:06;73.82;;;39.13;;
22040;SDS011;11184;52.444;13.578;2024-03-06T07:36:52;60.50;;;39.45;;
22040;SDS011;11184;52.444;13.578;2024-03-06T07:39:36;69.32;;;40.55;;
22040;SDS011;11184;52.444;13.578;2024-03-06T07:42:21;60.53;;;38.78;;
22040;SDS011;11184;52.444;13.578;2024-03-06T07:45:06;66.18;;;34.30;;
22040;SDS011;11184;52.444;13.578;2024-03-06T07:47:52;55.80;;;33.97;;
22040;SDS011;11184;52.444;13.578;2024-03-06T07:50:37;49.85;;;34.05;;
22040;SDS011;11184;52.444;13.578;2024-03-06T07:53:21;100.35;;;36.50;;
22040;SDS011;11184;52.444;13.578;2024-03-06T07:56:07;57.60;;;33.53;;
22040;SDS011;11184;52.444;13.578;2024-03-06T07:58:55;74.88;;;35.30;;
22040;SDS011;11184;52.444;13.578;2024-03-06T08:01:40;58.08;;;34.55;;
22040;SDS011;11184;52.444;13.578;2024-03-06T08:04:24;56.88;;;35.65;;
22040;SDS011;11184;52.444;13.578;2024-03-06T08:07:10;55.70;;;35.78;;
22040;SDS011;11184;52.444;13.578;2024-03-06T08:09:55;51.55;;;28.88;;
22040;SDS011;11184;52.444;13.578;2024-03-06T08:12:40;47.40;;;31.17;;
22040;SDS011;11184;52.444;13.578;2024-03-06T08:15:25;46.42;;;31.42;;
22040;SDS011;11184;52.444;13.578;2024-03-06T08:18:10;40.28;;;29.05;;
22040;SDS011;11184;52.444;13.578;2024-03-06T08:20:54;47.95;;;30.95;;
22040;SDS011;11184;52.444;13.578;2024-03-06T08:23:39;48.10;;;32.00;;
22040;SDS011;11184;52.444;13.578;2024-03-06T08:26:24;41.30;;;27.73;;
22040;SDS011;11184;52.444;13.578;2024-03-06T08:29:08;52.08;;;29.70;;
22040;SDS011;11184;52.444;13.578;2024-03-06T08:31:53;60.95;;;29.88;;
22040;SDS011;11184;52.444;13.578;2024-03-06T08:34:41;50.53;;;27.55;;
22040;SDS011;11184;52.444;13.578;2024-03-06T08:37:26;38.17;;;29.20;;
22040;SDS011;11184;52.444;13.578;2024-03-06T08:40:10;36.63;;;27.40;;
22040;SDS011;11184;52.444;13.578;2024-03-06T08:42:58;37.75;;;27.90;;
22040;SDS011;11184;52.444;13.578;2024-03-06T08:45:42;38.60;;;27.90;;
22040;SDS011;11184;52.444;13.578;2024-03-06T08:48:27;37.83;;;29.27;;
22040;SDS011;11184;52.444;13.578;2024-03-06T08:51:11;36.70;;;25.38;;
22040;SDS011;11184;52.444;13.578;2024-03-06T08:53:57;39.85;;;28.30;;
22040;SDS011;11184;52.444;13.578;2024-03-06T08:56:43;39.85;;;26.38;;
22040;SDS011;11184;52.444;13.578;2024-03-06T08:59:28;31.10;;;24.02;;
22040;SDS011;11184;52.444;13.578;2024-03-06T09:02:18;30.48;;;25.10;;
22040;SDS011;11184;52.444;13.578;2024-03-06T09:05:03;30.63;;;24.63;;
22040;SDS011;11184;52.444;13.578;2024-03-06T09:07:48;36.38;;;25.45;;
22040;SDS011;11184;52.444;13.578;2024-03-06T09:10:32;29.15;;;22.88;;
22040;SDS011;11184;52.444;13.578;2024-03-06T09:13:17;31.27;;;23.95;;
22040;SDS011;11184;52.444;13.578;2024-03-06T09:16:02;28.35;;;23.10;;
22040;SDS011;11184;52.444;13.578;2024-03-06T09:18:47;31.58;;;20.83;;
22040;SDS011;11184;52.444;13.578;2024-03-06T09:21:32;23.05;;;19.25;;
22040;SDS011;11184;52.444;13.578;2024-03-06T09:24:17;32.60;;;22.55;;
22040;SDS011;11184;52.444;13.578;2024-03-06T09:27:02;27.75;;;22.38;;
22040;SDS011;11184;52.444;13.578;2024-03-06T09:29:46;22.77;;;19.60;;
22040;SDS011;11184;52.444;13.578;2024-03-06T09:32:31;24.88;;;19.23;;
22040;SDS011;11184;52.444;13.578;2024-03-06T09:35:16;21.92;;;17.67;;
22040;SDS011;11184;52.444;13.578;2024-03-06T09:38:00;22.83;;;19.38;;
22040;SDS011;11184;52.444;13.578;2024-03-06T09:40:45;25.25;;;20.10;;
22040;SDS011;11184;52.444;13.578;2024-03-06T09:43:34;20.42;;;17.83;;
22040;SDS011;11184;52.444;13.578;2024-03-06T09:46:19;22.92;;;18.92;;
22040;SDS011;11184;52.444;13.578;2024-03-06T09:49:04;21.55;;;18.05;;
22040;SDS011;11184;52.444;13.578;2024-03-06T09:51:50;20.92;;;16.92;;
22040;SDS011;11184;52.444;13.578;2024-03-06T09:54:34;19.10;;;17.10;;
22040;SDS011;11184;52.444;13.578;2024-03-06T09:57:19;17.85;;;16.15;;
22040;SDS011;11184;52.444;13.578;2024-03-06T10:00:05;21.15;;;16.33;;
22040;SDS011;11184;52.444;13.578;2024-03-06T10:02:51;23.63;;;18.65;;
22040;SDS011;11184;52.444;13.578;2024-03-06T10:05:39;17.08;;;15.10;;
22040;SDS011;11184;52.444;13.578;2024-03-06T10:08:23;20.08;;;15.52;;
22040;SDS011;11184;52.444;13.578;2024-03-06T10:11:11;15.57;;;14.00;;
22040;SDS011;11184;52.444;13.578;2024-03-06T10:13:55;13.43;;;12.13;;
22040;SDS011;11184;52.444;13.578;2024-03-06T10:16:56;12.45;;;11.15;;
22040;SDS011;11184;52.444;13.578;2024-03-06T10:19:40;11.45;;;10.35;;
22040;SDS011;11184;52.444;13.578;2024-03-06T10:22:29;12.10;;;10.98;;
22040;SDS011;11184;52.444;13.578;2024-03-06T10:25:13;16.55;;;13.70;;
22040;SDS011;11184;52.444;13.578;2024-03-06T10:28:05;10.23;;;9.20;;
22040;SDS011;11184;52.444;13.578;2024-03-06T10:30:50;9.80;;;8.85;;
22040;SDS011;11184;52.444;13.578;2024-03-06T10:33:35;9.20;;;8.30;;
22040;SDS011;11184;52.444;13.578;2024-03-06T10:36:21;9.02;;;8.20;;
22040;SDS011;11184;52.444;13.578;2024-03-06T10:39:11;9.85;;;8.90;;
22040;SDS011;11184;52.444;13.578;2024-03-06T10:41:57;11.60;;;10.40;;
22040;SDS011;11184;52.444;13.578;2024-03-06T10:44:45;10.82;;;9.82;;
22040;SDS011;11184;52.444;13.578;2024-03-06T10:47:33;10.73;;;9.73;;
22040;SDS011;11184;52.444;13.578;2024-03-06T10:50:18;13.57;;;9.50;;
22040;SDS011;11184;52.444;13.578;2024-03-06T10:53:03;11.60;;;9.68;;
22040;SDS011;11184;52.444;13.578;2024-03-06T10:55:49;12.45;;;11.20;;
22040;SDS011;11184;52.444;13.578;2024-03-06T10:58:34;11.35;;;10.15;;
22040;SDS011;11184;52.444;13.578;2024-03-06T11:01:19;11.63;;;10.52;;
22040;SDS011;11184;52.444;13.578;2024-03-06T11:04:04;11.57;;;10.48;;
22040;SDS011;11184;52.444;13.578;2024-03-06T11:06:51;11.45;;;9.55;;
22040;SDS011;11184;52.444;13.578;2024-03-06T11:09:36;12.15;;;10.27;;
22040;SDS011;11184;52.444;13.578;2024-03-06T11:12:36;11.90;;;10.75;;
22040;SDS011;11184;52.444;13.578;2024-03-06T11:15:22;11.93;;;10.73;;
22040;SDS011;11184;52.444;13.578;2024-03-06T11:24:12;17.83;;;12.38;;
22040;SDS011;11184;52.444;13.578;2024-03-06T11:27:02;13.10;;;11.90;;
22040;SDS011;11184;52.444;13.578;2024-03-06T11:30:03;11.43;;;10.32;;
22040;SDS011;11184;52.444;13.578;2024-03-06T11:32:58;13.13;;;9.75;;
22040;SDS011;11184;52.444;13.578;2024-03-06T11:39:09;12.80;;;9.80;;
22040;SDS011;11184;52.444;13.578;2024-03-06T11:41:53;15.23;;;10.88;;
22040;SDS011;11184;52.444;13.578;2024-03-06T11:44:51;13.23;;;11.27;;
22040;SDS011;11184;52.444;13.578;2024-03-06T11:47:55;9.85;;;8.98;;
22040;SDS011;11184;52.444;13.578;2024-03-06T11:50:39;8.90;;;8.02;;
22040;SDS011;11184;52.444;13.578;2024-03-06T11:53:25;10.10;;;9.15;;
22040;SDS011;11184;52.444;13.578;2024-03-06T11:56:10;9.15;;;8.35;;
22040;SDS011;11184;52.444;13.578;2024-03-06T11:58:55;9.70;;;8.23;;
22040;SDS011;11184;52.444;13.578;2024-03-06T12:01:40;9.55;;;8.50;;
22040;SDS011;11184;52.444;13.578;2024-03-06T12:04:25;9.52;;;8.38;;
22040;SDS011;11184;52.444;13.578;2024-03-06T12:07:10;10.73;;;9.68;;
22040;SDS011;11184;52.444;13.578;2024-03-06T12:09:54;8.85;;;8.15;;
22040;SDS011;11184;52.444;13.578;2024-03-06T12:12:40;10.23;;;9.10;;
22040;SDS011;11184;52.444;13.578;2024-03-06T12:15:26;9.30;;;8.38;;
22040;SDS011;11184;52.444;13.578;2024-03-06T12:18:12;10.23;;;9.38;;
22040;SDS011;11184;52.444;13.578;2024-03-06T12:20:59;13.75;;;9.88;;
22040;SDS011;11184;52.444;13.578;2024-03-06T12:23:46;12.13;;;11.02;;
22040;SDS011;11184;52.444;13.578;2024-03-06T12:26:30;13.23;;;11.82;;
22040;SDS011;11184;52.444;13.578;2024-03-06T12:29:17;14.35;;;12.88;;
22040;SDS011;11184;52.444;13.578;2024-03-06T12:32:04;13.88;;;12.60;;
22040;SDS011;11184;52.444;13.578;2024-03-06T12:35:01;11.45;;;10.43;;
22040;SDS011;11184;52.444;13.578;2024-03-06T12:37:46;12.15;;;10.48;;
22040;SDS011;11184;52.444;13.578;2024-03-06T12:40:30;11.07;;;10.07;;
22040;SDS011;11184;52.444;13.578;2024-03-06T12:43:15;12.27;;;10.95;;
22040;SDS011;11184;52.444;13.578;2024-03-06T12:45:59;10.88;;;9.88;;
22040;SDS011;11184;52.444;13.578;2024-03-06T12:48:43;14.13;;;10.50;;
22040;SDS011;11184;52.444;13.578;2024-03-06T12:51:29;13.05;;;11.73;;
22040;SDS011;11184;52.444;13.578;2024-03-06T12:54:13;16.15;;;12.38;;
22040;SDS011;11184;52.444;13.578;2024-03-06T12:56:58;12.65;;;11.07;;
22040;SDS011;11184;52.444;13.578;2024-03-06T12:59:42;17.08;;;11.68;;
22040;SDS011;11184;52.444;13.578;2024-03-06T13:02:28;13.80;;;12.45;;
22040;SDS011;11184;52.444;13.578;2024-03-06T13:05:12;15.02;;;13.57;;
22040;SDS011;11184;52.444;13.578;2024-03-06T13:07:57;14.18;;;12.80;;
22040;SDS011;11184;52.444;13.578;2024-03-06T13:10:43;13.48;;;12.23;;
22040;SDS011;11184;52.444;13.578;2024-03-06T13:13:28;15.82;;;14.27;;
22040;SDS011;11184;52.444;13.578;2024-03-06T13:16:13;16.63;;;15.05;;
22040;SDS011;11184;52.444;13.578;2024-03-06T13:18:58;18.23;;;15.00;;
22040;SDS011;11184;52.444;13.578;2024-03-06T13:21:44;15.80;;;14.40;;
22040;SDS011;11184;52.444;13.578;2024-03-06T13:24:28;19.67;;;17.58;;
22040;SDS011;11184;52.444;13.578;2024-03-06T13:27:13;20.05;;;18.05;;
22040;SDS011;11184;52.444;13.578;2024-03-06T13:29:58;23.10;;;20.10;;
22040;SDS011;11184;52.444;13.578;2024-03-06T13:32:43;26.83;;;21.92;;
22040;SDS011;11184;52.444;13.578;2024-03-06T13:35:29;22.55;;;18.30;;
22040;SDS011;11184;52.444;13.578;2024-03-06T13:38:13;22.83;;;18.73;;
22040;SDS011;11184;52.444;13.578;2024-03-06T13:40:58;20.40;;;17.88;;
22040;SDS011;11184;52.444;13.578;2024-03-06T13:43:45;17.42;;;15.55;;
22040;SDS011;11184;52.444;13.578;2024-03-06T13:46:30;19.25;;;15.90;;
22040;SDS011;11184;52.444;13.578;2024-03-06T13:51:44;16.27;;;14.52;;
22040;SDS011;11184;52.444;13.578;2024-03-06T13:54:28;22.25;;;16.00;;
22040;SDS011;11184;52.444;13.578;2024-03-06T13:57:13;18.60;;;14.25;;
22040;SDS011;11184;52.444;13.578;2024-03-06T13:59:58;15.98;;;13.90;;
22040;SDS011;11184;52.444;13.578;2024-03-06T14:02:45;15.95;;;14.35;;
22040;SDS011;11184;52.444;13.578;2024-03-06T14:05:30;14.50;;;12.82;;
22040;SDS011;11184;52.444;13.578;2024-03-06T14:08:15;17.35;;;12.85;;
22040;SDS011;11184;52.444;13.578;2024-03-06T14:11:00;16.45;;;14.48;;
22040;SDS011;11184;52.444;13.578;2024-03-06T14:13:47;15.68;;;14.00;;
22040;SDS011;11184;52.444;13.578;2024-03-06T14:16:32;11.23;;;9.00;;
22040;SDS011;11184;52.444;13.578;2024-03-06T14:19:17;19.30;;;13.35;;
22040;SDS011;11184;52.444;13.578;2024-03-06T14:22:02;14.38;;;12.18;;
22040;SDS011;11184;52.444;13.578;2024-03-06T14:24:47;18.30;;;14.48;;
22040;SDS011;11184;52.444;13.578;2024-03-06T14:27:32;23.67;;;19.40;;
22040;SDS011;11184;52.444;13.578;2024-03-06T14:30:17;37.80;;;25.42;;
22040;SDS011;11184;52.444;13.578;2024-03-06T14:33:03;37.70;;;25.00;;
22040;SDS011;11184;52.444;13.578;2024-03-06T14:35:48;36.83;;;23.88;;
22040;SDS011;11184;52.444;13.578;2024-03-06T14:38:33;43.10;;;23.80;;
22040;SDS011;11184;52.444;13.578;2024-03-06T14:41:18;35.75;;;20.08;;
22040;SDS011;11184;52.444;13.578;2024-03-06T14:44:03;33.55;;;20.50;;
22040;SDS011;11184;52.444;13.578;2024-03-06T14:46:48;35.60;;;21.33;;
22040;SDS011;11184;52.444;13.578;2024-03-06T14:49:33;36.15;;;20.98;;
22040;SDS011;11184;52.444;13.578;2024-03-06T14:52:18;33.25;;;20.30;;
22040;SDS011;11184;52.444;13.578;2024-03-06T14:55:03;42.30;;;24.23;;
22040;SDS011;11184;52.444;13.578;2024-03-06T14:57:47;38.13;;;23.30;;
22040;SDS011;11184;52.444;13.578;2024-03-06T15:00:33;37.00;;;23.73;;
22040;SDS011;11184;52.444;13.578;2024-03-06T15:03:17;48.35;;;28.48;;
22040;SDS011;11184;52.444;13.578;2024-03-06T15:06:03;42.35;;;27.23;;
22040;SDS011;11184;52.444;13.578;2024-03-06T15:08:47;48.28;;;31.15;;
22040;SDS011;11184;52.444;13.578;2024-03-06T15:11:32;50.38;;;30.73;;
22040;SDS011;11184;52.444;13.578;2024-03-06T15:14:17;54.35;;;31.40;;
22040;SDS011;11184;52.444;13.578;2024-03-06T15:17:02;52.85;;;32.20;;
22040;SDS011;11184;52.444;13.578;2024-03-06T15:19:48;54.53;;;34.22;;
22040;SDS011;11184;52.444;13.578;2024-03-06T15:22:33;54.28;;;35.60;;
22040;SDS011;11184;52.444;13.578;2024-03-06T15:25:23;54.85;;;34.13;;
22040;SDS011;11184;52.444;13.578;2024-03-06T15:28:07;60.17;;;36.38;;
22040;SDS011;11184;52.444;13.578;2024-03-06T15:30:52;64.63;;;36.97;;
22040;SDS011;11184;52.444;13.578;2024-03-06T15:33:37;54.78;;;33.67;;
22040;SDS011;11184;52.444;13.578;2024-03-06T15:36:22;51.45;;;35.10;;
22040;SDS011;11184;52.444;13.578;2024-03-06T15:39:06;48.28;;;33.50;;
22040;SDS011;11184;52.444;13.578;2024-03-06T15:41:51;47.22;;;32.35;;
22040;SDS011;11184;52.444;13.578;2024-03-06T15:44:36;47.20;;;32.80;;
22040;SDS011;11184;52.444;13.578;2024-03-06T15:47:20;49.67;;;33.83;;
22040;SDS011;11184;52.444;13.578;2024-03-06T15:50:05;50.75;;;34.42;;
22040;SDS011;11184;52.444;13.578;2024-03-06T15:52:53;45.00;;;30.70;;
22040;SDS011;11184;52.444;13.578;2024-03-06T15:55:37;45.22;;;30.83;;
22040;SDS011;11184;52.444;13.578;2024-03-06T15:58:22;45.67;;;29.50;;
22040;SDS011;11184;52.444;13.578;2024-03-06T16:01:07;43.22;;;32.38;;
22040;SDS011;11184;52.444;13.578;2024-03-06T16:03:51;42.88;;;30.60;;
22040;SDS011;11184;52.444;13.578;2024-03-06T16:06:36;47.35;;;29.67;;